Preview of NWS' New Version of Forecast
This preview is not operational and should not be used for support decisions.

Terminal Aerodrome Forecast (TAF)

Issued by National Weather Service (NWS)

                            
000
FTUS42 KKEY 201102 AAB
TAFEYW
TAF AMD
KEYW 201102Z 2011/2106 22015G23KT P6SM VCTS FEW010CB SCT020 BKN040
      TEMPO 2011/2013 25022G35KT P6SM TSRA SCT010CB BKN040
     FM201300 32018G28KT 4SM SHRA BKN015 OVC025
     FM201800 33017G27KT P6SM BKN017 OVC030=